sensor_id;sensor_type;location;lat;lon;timestamp;pressure;altitude;pressure_sealevel;temperature;humidity
11415;BME280;5763;42.714;23.244;2022-09-01T00:01:28;94410.84;;;19.75;80.38
11415;BME280;5763;42.714;23.244;2022-09-01T00:03:59;94414.38;;;19.76;80.55
11415;BME280;5763;42.714;23.244;2022-09-01T00:06:29;94403.50;;;19.78;80.01
11415;BME280;5763;42.714;23.244;2022-09-01T00:08:59;94401.00;;;19.74;79.87
11415;BME280;5763;42.714;23.244;2022-09-01T00:11:29;94407.06;;;19.73;80.00
11415;BME280;5763;42.714;23.244;2022-09-01T00:13:58;94408.34;;;19.72;80.43
11415;BME280;5763;42.714;23.244;2022-09-01T00:16:27;94405.34;;;19.70;80.56
11415;BME280;5763;42.714;23.244;2022-09-01T00:18:55;94408.13;;;19.70;80.93
11415;BME280;5763;42.714;23.244;2022-09-01T00:21:27;94395.97;;;19.73;80.81
11415;BME280;5763;42.714;23.244;2022-09-01T00:23:54;94406.38;;;19.67;80.90
11415;BME280;5763;42.714;23.244;2022-09-01T00:26:22;94405.66;;;19.61;81.36
11415;BME280;5763;42.714;23.244;2022-09-01T00:28:49;94400.28;;;19.68;80.57
11415;BME280;5763;42.714;23.244;2022-09-01T00:31:17;94399.59;;;19.62;80.09
11415;BME280;5763;42.714;23.244;2022-09-01T00:33:46;94396.03;;;19.62;79.94
11415;BME280;5763;42.714;23.244;2022-09-01T00:36:14;94399.63;;;19.57;80.15
11415;BME280;5763;42.714;23.244;2022-09-01T00:38:42;94406.94;;;19.54;80.28
11415;BME280;5763;42.714;23.244;2022-09-01T00:41:12;94406.44;;;19.56;80.11
11415;BME280;5763;42.714;23.244;2022-09-01T00:43:41;94410.72;;;19.57;79.91
11415;BME280;5763;42.714;23.244;2022-09-01T00:46:13;94337.06;;;19.10;80.13
11415;BME280;5763;42.714;23.244;2022-09-01T00:48:42;94404.16;;;19.54;80.38
11415;BME280;5763;42.714;23.244;2022-09-01T00:51:10;94411.75;;;19.54;80.62
11415;BME280;5763;42.714;23.244;2022-09-01T00:53:43;94412.56;;;19.49;81.07
11415;BME280;5763;42.714;23.244;2022-09-01T00:56:12;94408.00;;;19.51;80.83
11415;BME280;5763;42.714;23.244;2022-09-01T00:58:40;94419.63;;;19.44;80.84
11415;BME280;5763;42.714;23.244;2022-09-01T01:01:10;94419.41;;;19.42;81.17
11415;BME280;5763;42.714;23.244;2022-09-01T01:03:38;94424.69;;;19.40;81.35
11415;BME280;5763;42.714;23.244;2022-09-01T01:06:07;94428.22;;;19.41;81.81
11415;BME280;5763;42.714;23.244;2022-09-01T01:08:37;94426.97;;;19.42;81.16
11415;BME280;5763;42.714;23.244;2022-09-01T01:11:08;94415.44;;;19.27;81.45
11415;BME280;5763;42.714;23.244;2022-09-01T01:13:49;94422.19;;;19.37;80.95
11415;BME280;5763;42.714;23.244;2022-09-01T01:16:17;94415.16;;;19.30;80.92
11415;BME280;5763;42.714;23.244;2022-09-01T01:18:44;94404.06;;;19.30;80.82
11415;BME280;5763;42.714;23.244;2022-09-01T01:21:17;94378.97;;;19.06;80.69
11415;BME280;5763;42.714;23.244;2022-09-01T01:24:05;94395.00;;;19.30;80.61
11415;BME280;5763;42.714;23.244;2022-09-01T01:26:36;94401.84;;;19.23;80.76
11415;BME280;5763;42.714;23.244;2022-09-01T01:29:04;94405.38;;;19.24;80.69
11415;BME280;5763;42.714;23.244;2022-09-01T01:31:34;94411.91;;;19.21;81.14
11415;BME280;5763;42.714;23.244;2022-09-01T01:34:01;94406.34;;;19.21;81.29
11415;BME280;5763;42.714;23.244;2022-09-01T01:36:32;94401.06;;;19.23;81.44
11415;BME280;5763;42.714;23.244;2022-09-01T01:39:04;94407.63;;;19.20;81.18
11415;BME280;5763;42.714;23.244;2022-09-01T01:41:32;94418.00;;;19.14;81.35
11415;BME280;5763;42.714;23.244;2022-09-01T01:44:02;94416.00;;;19.09;81.23
11415;BME280;5763;42.714;23.244;2022-09-01T01:46:30;94385.13;;;18.77;80.36
11415;BME280;5763;42.714;23.244;2022-09-01T01:48:57;94422.13;;;18.91;80.49
11415;BME280;5763;42.714;23.244;2022-09-01T01:51:27;94426.72;;;18.83;80.37
11415;BME280;5763;42.714;23.244;2022-09-01T01:53:56;94436.25;;;18.82;80.80
11415;BME280;5763;42.714;23.244;2022-09-01T01:56:30;94427.25;;;18.65;81.21
11415;BME280;5763;42.714;23.244;2022-09-01T01:58:58;94441.84;;;18.71;81.35
11415;BME280;5763;42.714;23.244;2022-09-01T02:01:28;94436.56;;;18.73;81.28
11415;BME280;5763;42.714;23.244;2022-09-01T02:03:57;94443.13;;;18.70;81.26
11415;BME280;5763;42.714;23.244;2022-09-01T02:06:25;94441.59;;;18.69;81.67
11415;BME280;5763;42.714;23.244;2022-09-01T02:08:54;94438.31;;;18.76;81.43
11415;BME280;5763;42.714;23.244;2022-09-01T02:11:22;94445.84;;;18.81;80.93
11415;BME280;5763;42.714;23.244;2022-09-01T02:13:50;94445.13;;;18.80;81.06
11415;BME280;5763;42.714;23.244;2022-09-01T02:16:22;94454.16;;;18.86;79.89
11415;BME280;5763;42.714;23.244;2022-09-01T02:18:51;94449.88;;;18.85;79.81
11415;BME280;5763;42.714;23.244;2022-09-01T02:21:22;94443.31;;;18.88;79.46
11415;BME280;5763;42.714;23.244;2022-09-01T02:23:51;94451.41;;;18.81;80.11
11415;BME280;5763;42.714;23.244;2022-09-01T02:26:21;94447.13;;;18.80;80.57
11415;BME280;5763;42.714;23.244;2022-09-01T02:28:52;94438.53;;;18.83;80.15
11415;BME280;5763;42.714;23.244;2022-09-01T02:31:19;94441.81;;;18.82;80.46
11415;BME280;5763;42.714;23.244;2022-09-01T02:33:47;94440.56;;;18.77;80.75
11415;BME280;5763;42.714;23.244;2022-09-01T02:36:17;94436.81;;;18.75;80.44
11415;BME280;5763;42.714;23.244;2022-09-01T02:38:45;94428.47;;;18.75;80.86
11415;BME280;5763;42.714;23.244;2022-09-01T02:41:14;94430.75;;;18.71;80.78
11415;BME280;5763;42.714;23.244;2022-09-01T02:43:45;94437.06;;;18.71;80.95
11415;BME280;5763;42.714;23.244;2022-09-01T02:46:12;94428.00;;;18.71;81.08
11415;BME280;5763;42.714;23.244;2022-09-01T02:48:42;94426.47;;;18.70;81.07
11415;BME280;5763;42.714;23.244;2022-09-01T02:51:13;94418.44;;;18.72;80.88
11415;BME280;5763;42.714;23.244;2022-09-01T02:53:42;94413.13;;;18.74;81.17
11415;BME280;5763;42.714;23.244;2022-09-01T02:56:11;94409.84;;;18.75;81.11
11415;BME280;5763;42.714;23.244;2022-09-01T02:58:40;94411.63;;;18.73;80.58
11415;BME280;5763;42.714;23.244;2022-09-01T03:01:12;94415.41;;;18.70;80.76
11415;BME280;5763;42.714;23.244;2022-09-01T03:03:39;94426.97;;;18.68;81.19
11415;BME280;5763;42.714;23.244;2022-09-01T03:06:06;94421.72;;;18.65;81.41
11415;BME280;5763;42.714;23.244;2022-09-01T03:08:35;94429.25;;;18.70;81.16
11415;BME280;5763;42.714;23.244;2022-09-01T03:11:06;94428.53;;;18.69;80.79
11415;BME280;5763;42.714;23.244;2022-09-01T03:13:37;94424.97;;;18.63;81.41
11415;BME280;5763;42.714;23.244;2022-09-01T03:16:04;94421.47;;;18.57;81.78
11415;BME280;5763;42.714;23.244;2022-09-01T03:18:31;94427.03;;;18.57;82.01
11415;BME280;5763;42.714;23.244;2022-09-01T03:20:59;94420.75;;;18.57;82.37
11415;BME280;5763;42.714;23.244;2022-09-01T03:23:28;94428.78;;;18.55;83.16
11415;BME280;5763;42.714;23.244;2022-09-01T03:25:56;94432.06;;;18.53;83.30
11415;BME280;5763;42.714;23.244;2022-09-01T03:28:25;94427.81;;;18.47;83.12
11415;BME280;5763;42.714;23.244;2022-09-01T03:30:53;94430.31;;;18.45;83.05
11415;BME280;5763;42.714;23.244;2022-09-01T03:33:22;94434.84;;;18.53;83.25
11415;BME280;5763;42.714;23.244;2022-09-01T03:35:49;94428.28;;;18.56;83.38
11415;BME280;5763;42.714;23.244;2022-09-01T03:38:16;94433.84;;;18.62;84.32
11415;BME280;5763;42.714;23.244;2022-09-01T03:40:46;94433.84;;;18.51;86.45
11415;BME280;5763;42.714;23.244;2022-09-01T03:43:14;94435.38;;;18.52;87.27
11415;BME280;5763;42.714;23.244;2022-09-01T03:45:42;94421.50;;;18.46;87.80
11415;BME280;5763;42.714;23.244;2022-09-01T03:48:11;94434.88;;;18.48;88.55
11415;BME280;5763;42.714;23.244;2022-09-01T03:50:42;94434.31;;;18.55;88.24
11415;BME280;5763;42.714;23.244;2022-09-01T03:53:12;94434.84;;;18.59;87.94
11415;BME280;5763;42.714;23.244;2022-09-01T03:55:39;94432.06;;;18.59;88.53
11415;BME280;5763;42.714;23.244;2022-09-01T03:58:08;94436.56;;;18.67;88.37
11415;BME280;5763;42.714;23.244;2022-09-01T04:00:38;94436.59;;;18.62;89.19
11415;BME280;5763;42.714;23.244;2022-09-01T04:03:09;94438.88;;;18.52;90.31
11415;BME280;5763;42.714;23.244;2022-09-01T04:05:38;94437.88;;;18.50;91.46
11415;BME280;5763;42.714;23.244;2022-09-01T04:08:07;94442.38;;;18.58;91.34
11415;BME280;5763;42.714;23.244;2022-09-01T04:10:42;94434.34;;;18.49;91.71
11415;BME280;5763;42.714;23.244;2022-09-01T04:13:15;94443.19;;;18.48;92.79
11415;BME280;5763;42.714;23.244;2022-09-01T04:15:42;94430.09;;;18.37;94.40
11415;BME280;5763;42.714;23.244;2022-09-01T04:18:10;94427.81;;;18.41;94.73
11415;BME280;5763;42.714;23.244;2022-09-01T04:20:46;94428.78;;;18.60;93.61
11415;BME280;5763;42.714;23.244;2022-09-01T04:23:17;94434.06;;;18.64;92.75
11415;BME280;5763;42.714;23.244;2022-09-01T04:25:51;94431.78;;;18.68;92.35
11415;BME280;5763;42.714;23.244;2022-09-01T04:28:19;94423.25;;;18.55;92.61
11415;BME280;5763;42.714;23.244;2022-09-01T04:30:53;94433.59;;;18.43;93.55
11415;BME280;5763;42.714;23.244;2022-09-01T04:33:24;94422.53;;;18.38;94.30
11415;BME280;5763;42.714;23.244;2022-09-01T04:35:52;94430.34;;;18.39;92.94
11415;BME280;5763;42.714;23.244;2022-09-01T04:38:22;94434.13;;;18.31;93.49
11415;BME280;5763;42.714;23.244;2022-09-01T04:40:50;94424.53;;;18.32;93.60
11415;BME280;5763;42.714;23.244;2022-09-01T04:43:17;94430.34;;;18.34;92.18
11415;BME280;5763;42.714;23.244;2022-09-01T04:45:45;94424.25;;;18.29;93.32
11415;BME280;5763;42.714;23.244;2022-09-01T04:48:17;94424.03;;;18.27;92.64
11415;BME280;5763;42.714;23.244;2022-09-01T04:50:46;94435.88;;;18.12;94.18
11415;BME280;5763;42.714;23.244;2022-09-01T04:53:14;94428.06;;;18.04;95.07
11415;BME280;5763;42.714;23.244;2022-09-01T04:55:43;94426.56;;;18.03;96.10
11415;BME280;5763;42.714;23.244;2022-09-01T04:58:12;94429.59;;;18.17;95.55
11415;BME280;5763;42.714;23.244;2022-09-01T05:00:42;94420.03;;;18.34;93.93
11415;BME280;5763;42.714;23.244;2022-09-01T05:03:09;94428.06;;;18.32;94.46
11415;BME280;5763;42.714;23.244;2022-09-01T05:05:39;94426.50;;;18.53;93.26
11415;BME280;5763;42.714;23.244;2022-09-01T05:08:09;94427.75;;;18.63;92.26
11415;BME280;5763;42.714;23.244;2022-09-01T05:10:40;94423.44;;;18.73;91.68
11415;BME280;5763;42.714;23.244;2022-09-01T05:13:08;94422.94;;;18.75;92.23
11415;BME280;5763;42.714;23.244;2022-09-01T05:15:38;94422.91;;;18.86;91.43
11415;BME280;5763;42.714;23.244;2022-09-01T05:18:07;94423.38;;;18.95;90.51
11415;BME280;5763;42.714;23.244;2022-09-01T05:20:37;94421.06;;;19.05;90.51
11415;BME280;5763;42.714;23.244;2022-09-01T05:23:09;94429.16;;;18.97;91.07
11415;BME280;5763;42.714;23.244;2022-09-01T05:25:42;94426.66;;;18.88;92.05
11415;BME280;5763;42.714;23.244;2022-09-01T05:28:11;94421.41;;;18.79;93.31
11415;BME280;5763;42.714;23.244;2022-09-01T05:30:39;94425.84;;;19.04;91.72
11415;BME280;5763;42.714;23.244;2022-09-01T05:33:07;94422.28;;;19.09;91.44
11415;BME280;5763;42.714;23.244;2022-09-01T05:35:38;94423.25;;;19.23;90.07
11415;BME280;5763;42.714;23.244;2022-09-01T05:38:10;94425.53;;;19.30;90.37
11415;BME280;5763;42.714;23.244;2022-09-01T05:40:41;94419.91;;;19.41;89.45
11415;BME280;5763;42.714;23.244;2022-09-01T05:43:09;94429.25;;;19.38;89.31
11415;BME280;5763;42.714;23.244;2022-09-01T05:45:41;94429.28;;;19.32;89.75
11415;BME280;5763;42.714;23.244;2022-09-01T05:48:10;94428.56;;;19.26;90.21
11415;BME280;5763;42.714;23.244;2022-09-01T05:50:42;94420.53;;;19.12;89.98
11415;BME280;5763;42.714;23.244;2022-09-01T05:53:11;94434.16;;;19.15;90.50
11415;BME280;5763;42.714;23.244;2022-09-01T05:55:42;94428.13;;;19.06;92.29
11415;BME280;5763;42.714;23.244;2022-09-01T05:58:09;94434.63;;;19.25;90.91
11415;BME280;5763;42.714;23.244;2022-09-01T06:00:39;94431.56;;;19.34;90.07
11415;BME280;5763;42.714;23.244;2022-09-01T06:03:07;94421.88;;;19.46;88.34
11415;BME280;5763;42.714;23.244;2022-09-01T06:05:35;94422.88;;;19.54;87.47
11415;BME280;5763;42.714;23.244;2022-09-01T06:08:02;94418.03;;;19.60;87.00
11415;BME280;5763;42.714;23.244;2022-09-01T06:10:31;94421.50;;;19.66;86.70
11415;BME280;5763;42.714;23.244;2022-09-01T06:13:01;94415.91;;;19.71;86.73
11415;BME280;5763;42.714;23.244;2022-09-01T06:15:29;94415.66;;;19.75;86.48
11415;BME280;5763;42.714;23.244;2022-09-01T06:17:57;94420.06;;;19.89;85.96
11415;BME280;5763;42.714;23.244;2022-09-01T06:20:25;94427.06;;;20.01;85.50
11415;BME280;5763;42.714;23.244;2022-09-01T06:22:52;94423.47;;;20.11;85.26
11415;BME280;5763;42.714;23.244;2022-09-01T06:25:19;94415.91;;;20.06;85.18
11415;BME280;5763;42.714;23.244;2022-09-01T06:27:48;94390.31;;;19.84;86.25
11415;BME280;5763;42.714;23.244;2022-09-01T06:30:17;94423.72;;;20.13;85.43
11415;BME280;5763;42.714;23.244;2022-09-01T06:32:51;94422.13;;;20.23;84.91
11415;BME280;5763;42.714;23.244;2022-09-01T06:35:19;94421.44;;;20.12;85.79
11415;BME280;5763;42.714;23.244;2022-09-01T06:37:46;94416.59;;;20.18;85.62
11415;BME280;5763;42.714;23.244;2022-09-01T06:40:15;94415.94;;;20.36;84.28
11415;BME280;5763;42.714;23.244;2022-09-01T06:42:43;94419.63;;;20.44;83.47
11415;BME280;5763;42.714;23.244;2022-09-01T06:45:13;94415.31;;;20.48;83.20
11415;BME280;5763;42.714;23.244;2022-09-01T06:47:41;94420.59;;;20.52;83.11
11415;BME280;5763;42.714;23.244;2022-09-01T06:50:10;94411.38;;;20.38;84.58
11415;BME280;5763;42.714;23.244;2022-09-01T06:52:38;94406.38;;;20.31;84.88
11415;BME280;5763;42.714;23.244;2022-09-01T06:55:08;94416.63;;;20.42;84.91
11415;BME280;5763;42.714;23.244;2022-09-01T06:57:35;94411.13;;;20.60;84.41
11415;BME280;5763;42.714;23.244;2022-09-01T07:00:04;94418.38;;;20.69;83.72
11415;BME280;5763;42.714;23.244;2022-09-01T07:02:33;94417.50;;;20.79;82.81
11415;BME280;5763;42.714;23.244;2022-09-01T07:05:00;94418.25;;;20.80;81.83
11415;BME280;5763;42.714;23.244;2022-09-01T07:07:27;94411.19;;;20.79;82.20
11415;BME280;5763;42.714;23.244;2022-09-01T07:09:58;94413.16;;;20.84;81.35
11415;BME280;5763;42.714;23.244;2022-09-01T07:12:25;94413.19;;;20.78;82.08
11415;BME280;5763;42.714;23.244;2022-09-01T07:14:52;94413.97;;;20.55;83.10
11415;BME280;5763;42.714;23.244;2022-09-01T07:17:19;94417.59;;;20.68;82.62
11415;BME280;5763;42.714;23.244;2022-09-01T07:19:48;94410.72;;;20.75;81.85
11415;BME280;5763;42.714;23.244;2022-09-01T07:22:15;94417.69;;;20.87;82.04
11415;BME280;5763;42.714;23.244;2022-09-01T07:24:42;94423.75;;;20.85;82.49
11415;BME280;5763;42.714;23.244;2022-09-01T07:27:10;94419.75;;;20.81;82.69
11415;BME280;5763;42.714;23.244;2022-09-01T07:29:37;94414.13;;;20.86;82.22
11415;BME280;5763;42.714;23.244;2022-09-01T07:32:05;94419.69;;;20.86;82.37
11415;BME280;5763;42.714;23.244;2022-09-01T07:34:33;94414.03;;;20.97;82.01
11415;BME280;5763;42.714;23.244;2022-09-01T07:37:01;94412.03;;;21.16;81.53
11415;BME280;5763;42.714;23.244;2022-09-01T07:39:28;94421.44;;;21.32;79.56
11415;BME280;5763;42.714;23.244;2022-09-01T07:41:55;94407.16;;;21.41;79.94
11415;BME280;5763;42.714;23.244;2022-09-01T07:44:23;94410.09;;;21.48;80.21
11415;BME280;5763;42.714;23.244;2022-09-01T07:46:51;94407.81;;;21.47;80.30
11415;BME280;5763;42.714;23.244;2022-09-01T07:49:17;94411.72;;;21.57;80.05
11415;BME280;5763;42.714;23.244;2022-09-01T07:51:45;94413.63;;;21.67;78.97
11415;BME280;5763;42.714;23.244;2022-09-01T07:54:19;94410.56;;;21.71;79.28
11415;BME280;5763;42.714;23.244;2022-09-01T07:56:48;94413.31;;;21.89;78.61
11415;BME280;5763;42.714;23.244;2022-09-01T07:59:14;94411.69;;;21.94;77.81
11415;BME280;5763;42.714;23.244;2022-09-01T08:01:42;94406.81;;;22.00;77.21
11415;BME280;5763;42.714;23.244;2022-09-01T08:04:09;94410.47;;;22.08;75.42
11415;BME280;5763;42.714;23.244;2022-09-01T08:06:36;94413.84;;;22.19;75.12
11415;BME280;5763;42.714;23.244;2022-09-01T08:09:04;94416.34;;;22.36;75.18
11415;BME280;5763;42.714;23.244;2022-09-01T08:11:33;94417.22;;;22.44;75.37
11415;BME280;5763;42.714;23.244;2022-09-01T08:13:59;94415.78;;;22.56;74.95
11415;BME280;5763;42.714;23.244;2022-09-01T08:16:27;94410.13;;;22.74;74.27
11415;BME280;5763;42.714;23.244;2022-09-01T08:18:55;94410.88;;;22.88;73.54
11415;BME280;5763;42.714;23.244;2022-09-01T08:21:23;94409.03;;;22.90;72.52
11415;BME280;5763;42.714;23.244;2022-09-01T08:23:52;94412.81;;;22.93;71.79
11415;BME280;5763;42.714;23.244;2022-09-01T08:26:20;94413.22;;;23.10;71.51
11415;BME280;5763;42.714;23.244;2022-09-01T08:28:49;94404.63;;;23.21;71.34
11415;BME280;5763;42.714;23.244;2022-09-01T08:31:17;94404.28;;;23.37;70.06
11415;BME280;5763;42.714;23.244;2022-09-01T08:33:46;94411.13;;;23.49;67.98
11415;BME280;5763;42.714;23.244;2022-09-01T08:36:15;94401.97;;;23.62;66.71
11415;BME280;5763;42.714;23.244;2022-09-01T08:38:42;94404.94;;;23.90;66.89
11415;BME280;5763;42.714;23.244;2022-09-01T08:41:16;94399.97;;;23.96;66.58
11415;BME280;5763;42.714;23.244;2022-09-01T08:43:59;94404.75;;;24.08;67.04
11415;BME280;5763;42.714;23.244;2022-09-01T08:46:31;94400.66;;;24.30;66.60
11415;BME280;5763;42.714;23.244;2022-09-01T08:49:03;94386.47;;;24.48;66.73
11415;BME280;5763;42.714;23.244;2022-09-01T08:51:36;94380.44;;;24.65;66.30
11415;BME280;5763;42.714;23.244;2022-09-01T08:54:20;94373.44;;;24.79;63.98
11415;BME280;5763;42.714;23.244;2022-09-01T08:56:51;94373.34;;;24.92;63.64
11415;BME280;5763;42.714;23.244;2022-09-01T08:59:21;94382.44;;;25.13;62.30
11415;BME280;5763;42.714;23.244;2022-09-01T09:01:54;94375.25;;;25.32;61.41
11415;BME280;5763;42.714;23.244;2022-09-01T09:04:36;94375.72;;;25.51;60.27
11415;BME280;5763;42.714;23.244;2022-09-01T09:07:10;94357.44;;;25.65;59.11
11415;BME280;5763;42.714;23.244;2022-09-01T09:09:43;94365.19;;;25.87;58.58
11415;BME280;5763;42.714;23.244;2022-09-01T09:12:20;94366.34;;;26.07;58.18
11415;BME280;5763;42.714;23.244;2022-09-01T09:15:06;94351.56;;;26.14;56.95
11415;BME280;5763;42.714;23.244;2022-09-01T09:17:39;94362.63;;;26.42;55.44
11415;BME280;5763;42.714;23.244;2022-09-01T09:20:07;94352.91;;;26.50;55.51
11415;BME280;5763;42.714;23.244;2022-09-01T09:22:35;94357.78;;;26.65;53.22
11415;BME280;5763;42.714;23.244;2022-09-01T09:25:06;94352.91;;;26.80;53.03
11415;BME280;5763;42.714;23.244;2022-09-01T09:27:36;94331.91;;;26.89;52.92
11415;BME280;5763;42.714;23.244;2022-09-01T09:30:07;94335.22;;;27.10;50.71
11415;BME280;5763;42.714;23.244;2022-09-01T09:32:49;94340.47;;;27.21;51.29
11415;BME280;5763;42.714;23.244;2022-09-01T09:35:25;94337.44;;;27.34;50.57
11415;BME280;5763;42.714;23.244;2022-09-01T09:38:14;94339.94;;;27.54;48.62
11415;BME280;5763;42.714;23.244;2022-09-01T09:40:56;94338.78;;;27.65;49.47
11415;BME280;5763;42.714;23.244;2022-09-01T09:43:24;94331.22;;;27.82;49.71
11415;BME280;5763;42.714;23.244;2022-09-01T09:46:24;94332.22;;;28.02;48.47
11415;BME280;5763;42.714;23.244;2022-09-01T09:49:07;94327.50;;;28.29;47.47
11415;BME280;5763;42.714;23.244;2022-09-01T09:51:36;94338.50;;;28.42;46.95
11415;BME280;5763;42.714;23.244;2022-09-01T09:54:14;94330.09;;;28.59;45.07
11415;BME280;5763;42.714;23.244;2022-09-01T09:56:43;94327.56;;;28.70;45.42
11415;BME280;5763;42.714;23.244;2022-09-01T09:59:23;94331.06;;;28.78;45.03
11415;BME280;5763;42.714;23.244;2022-09-01T10:01:56;94324.69;;;28.95;44.65
11415;BME280;5763;42.714;23.244;2022-09-01T10:04:37;94324.19;;;28.89;42.99
11415;BME280;5763;42.714;23.244;2022-09-01T10:07:23;94320.16;;;28.99;42.60
11415;BME280;5763;42.714;23.244;2022-09-01T10:09:52;94320.59;;;29.13;41.91
11415;BME280;5763;42.714;23.244;2022-09-01T10:12:20;94320.91;;;29.34;41.57
11415;BME280;5763;42.714;23.244;2022-09-01T10:14:51;94320.22;;;29.43;40.93
11415;BME280;5763;42.714;23.244;2022-09-01T10:17:25;94320.38;;;29.62;40.84
11415;BME280;5763;42.714;23.244;2022-09-01T10:19:56;94315.94;;;29.85;41.20
11415;BME280;5763;42.714;23.244;2022-09-01T10:22:30;94320.13;;;29.94;40.84
11415;BME280;5763;42.714;23.244;2022-09-01T10:24:58;94307.16;;;29.81;39.38
11415;BME280;5763;42.714;23.244;2022-09-01T10:27:29;94301.22;;;29.87;38.90
11415;BME280;5763;42.714;23.244;2022-09-01T10:30:11;94295.44;;;30.11;39.69
11415;BME280;5763;42.714;23.244;2022-09-01T10:32:43;94297.28;;;30.26;40.08
11415;BME280;5763;42.714;23.244;2022-09-01T10:35:15;94297.81;;;30.51;39.01
11415;BME280;5763;42.714;23.244;2022-09-01T10:37:45;94286.59;;;30.70;37.19
11415;BME280;5763;42.714;23.244;2022-09-01T10:40:19;94294.16;;;30.77;38.03
11415;BME280;5763;42.714;23.244;2022-09-01T10:43:23;94295.38;;;30.93;37.09
11415;BME280;5763;42.714;23.244;2022-09-01T10:45:51;94298.84;;;31.20;36.91
11415;BME280;5763;42.714;23.244;2022-09-01T10:48:25;94291.81;;;31.68;36.66
11415;BME280;5763;42.714;23.244;2022-09-01T10:53:59;94292.09;;;31.91;35.41
11415;BME280;5763;42.714;23.244;2022-09-01T10:56:37;94274.97;;;31.80;35.43
11415;BME280;5763;42.714;23.244;2022-09-01T10:59:06;94274.09;;;31.68;35.94
11415;BME280;5763;42.714;23.244;2022-09-01T11:05:13;94272.22;;;31.23;35.60
11415;BME280;5763;42.714;23.244;2022-09-01T11:07:41;94273.06;;;31.06;36.31
11415;BME280;5763;42.714;23.244;2022-09-01T11:10:32;94270.97;;;30.88;36.92
11415;BME280;5763;42.714;23.244;2022-09-01T11:13:15;94271.34;;;30.56;38.22
11415;BME280;5763;42.714;23.244;2022-09-01T11:15:47;94264.31;;;30.38;38.21
11415;BME280;5763;42.714;23.244;2022-09-01T11:18:16;94260.88;;;30.30;37.87
11415;BME280;5763;42.714;23.244;2022-09-01T11:20:52;94257.31;;;30.03;38.21
11415;BME280;5763;42.714;23.244;2022-09-01T11:23:22;94260.06;;;29.84;38.71
11415;BME280;5763;42.714;23.244;2022-09-01T11:25:51;94264.41;;;29.94;38.71
11415;BME280;5763;42.714;23.244;2022-09-01T11:28:37;94256.72;;;30.04;39.37
11415;BME280;5763;42.714;23.244;2022-09-01T11:31:29;94243.38;;;30.05;39.05
11415;BME280;5763;42.714;23.244;2022-09-01T11:34:20;94241.47;;;30.07;38.66
11415;BME280;5763;42.714;23.244;2022-09-01T11:36:54;94230.84;;;30.25;37.28
11415;BME280;5763;42.714;23.244;2022-09-01T11:39:35;94236.91;;;30.67;36.77
11415;BME280;5763;42.714;23.244;2022-09-01T11:42:08;94207.44;;;31.08;35.88
11415;BME280;5763;42.714;23.244;2022-09-01T11:44:41;94215.16;;;31.36;34.91
11415;BME280;5763;42.714;23.244;2022-09-01T11:47:13;94214.22;;;31.62;34.57
11415;BME280;5763;42.714;23.244;2022-09-01T11:49:48;94181.47;;;31.59;33.75
11415;BME280;5763;42.714;23.244;2022-09-01T11:52:19;94207.81;;;32.11;33.91
11415;BME280;5763;42.714;23.244;2022-09-01T11:54:47;94210.56;;;32.30;33.76
11415;BME280;5763;42.714;23.244;2022-09-01T11:57:27;94213.44;;;32.72;32.62
11415;BME280;5763;42.714;23.244;2022-09-01T11:59:56;94214.63;;;32.78;32.87
11415;BME280;5763;42.714;23.244;2022-09-01T12:02:26;94212.94;;;32.85;32.90
11415;BME280;5763;42.714;23.244;2022-09-01T12:04:54;94204.63;;;32.77;32.21
11415;BME280;5763;42.714;23.244;2022-09-01T12:07:42;94205.25;;;32.87;31.68
11415;BME280;5763;42.714;23.244;2022-09-01T12:10:16;94206.13;;;32.90;32.90
11415;BME280;5763;42.714;23.244;2022-09-01T12:12:45;94206.91;;;32.90;32.91
11415;BME280;5763;42.714;23.244;2022-09-01T12:15:18;94199.25;;;32.93;32.39
11415;BME280;5763;42.714;23.244;2022-09-01T12:17:46;94203.09;;;32.76;32.77
11415;BME280;5763;42.714;23.244;2022-09-01T12:20:22;94193.44;;;32.49;33.32
11415;BME280;5763;42.714;23.244;2022-09-01T12:22:50;94193.59;;;32.51;33.17
11415;BME280;5763;42.714;23.244;2022-09-01T12:25:20;94193.31;;;32.47;33.78
11415;BME280;5763;42.714;23.244;2022-09-01T12:27:48;94190.75;;;32.30;33.91
11415;BME280;5763;42.714;23.244;2022-09-01T12:30:15;94187.16;;;32.29;33.71
11415;BME280;5763;42.714;23.244;2022-09-01T12:32:42;94200.13;;;32.32;33.93
11415;BME280;5763;42.714;23.244;2022-09-01T12:35:15;94192.75;;;32.08;34.67
11415;BME280;5763;42.714;23.244;2022-09-01T12:37:43;94190.38;;;31.74;34.59
11415;BME280;5763;42.714;23.244;2022-09-01T12:40:23;94193.50;;;31.59;35.13
11415;BME280;5763;42.714;23.244;2022-09-01T12:42:51;94187.00;;;31.47;35.01
11415;BME280;5763;42.714;23.244;2022-09-01T12:45:39;94189.41;;;31.41;34.64
11415;BME280;5763;42.714;23.244;2022-09-01T12:48:06;94187.94;;;31.40;34.86
11415;BME280;5763;42.714;23.244;2022-09-01T12:50:49;94192.44;;;31.64;34.75
11415;BME280;5763;42.714;23.244;2022-09-01T12:53:21;94187.53;;;31.65;34.93
11415;BME280;5763;42.714;23.244;2022-09-01T12:55:58;94184.88;;;31.57;34.54
11415;BME280;5763;42.714;23.244;2022-09-01T12:58:27;94187.63;;;31.36;35.43
11415;BME280;5763;42.714;23.244;2022-09-01T13:00:57;94183.66;;;31.20;35.27
11415;BME280;5763;42.714;23.244;2022-09-01T13:03:25;94184.38;;;31.11;36.07
11415;BME280;5763;42.714;23.244;2022-09-01T13:05:55;94185.88;;;31.22;36.83
11415;BME280;5763;42.714;23.244;2022-09-01T13:08:24;94175.88;;;31.30;37.33
11415;BME280;5763;42.714;23.244;2022-09-01T13:10:56;94169.50;;;31.11;37.92
11415;BME280;5763;42.714;23.244;2022-09-01T13:13:25;94173.09;;;30.83;39.05
11415;BME280;5763;42.714;23.244;2022-09-01T13:15:53;94161.47;;;30.60;39.68
11415;BME280;5763;42.714;23.244;2022-09-01T13:18:23;94156.53;;;30.41;39.79
11415;BME280;5763;42.714;23.244;2022-09-01T13:20:51;94159.94;;;30.21;40.29
11415;BME280;5763;42.714;23.244;2022-09-01T13:23:19;94158.63;;;29.86;40.47
11415;BME280;5763;42.714;23.244;2022-09-01T13:25:46;94165.84;;;29.70;41.48